sensor_id;sensor_type;location;lat;lon;timestamp;P1;durP1;ratioP1;P2;durP2;ratioP2
30972;SDS011;25423;45.624;13.790;2022-09-09T00:04:48;19.90;;;11.18;;
30972;SDS011;25423;45.624;13.790;2022-09-09T00:15:27;13.18;;;8.43;;
30972;SDS011;25423;45.624;13.790;2022-09-09T00:23:49;7.78;;;6.82;;
30972;SDS011;25423;45.624;13.790;2022-09-09T00:31:45;11.90;;;6.00;;
30972;SDS011;25423;45.624;13.790;2022-09-09T00:34:16;12.27;;;6.45;;
30972;SDS011;25423;45.624;13.790;2022-09-09T00:36:47;6.68;;;5.68;;
30972;SDS011;25423;45.624;13.790;2022-09-09T00:39:36;7.72;;;5.90;;
30972;SDS011;25423;45.624;13.790;2022-09-09T00:45:09;11.80;;;6.82;;
30972;SDS011;25423;45.624;13.790;2022-09-09T00:47:59;9.57;;;5.57;;
30972;SDS011;25423;45.624;13.790;2022-09-09T00:50:55;12.57;;;5.47;;
30972;SDS011;25423;45.624;13.790;2022-09-09T00:56:11;12.07;;;7.32;;
30972;SDS011;25423;45.624;13.790;2022-09-09T00:58:50;7.28;;;5.25;;
30972;SDS011;25423;45.624;13.790;2022-09-09T01:01:28;7.20;;;5.07;;
30972;SDS011;25423;45.624;13.790;2022-09-09T01:03:54;11.95;;;5.82;;
30972;SDS011;25423;45.624;13.790;2022-09-09T01:06:31;9.23;;;5.82;;
30972;SDS011;25423;45.624;13.790;2022-09-09T01:16:59;11.48;;;4.97;;
30972;SDS011;25423;45.624;13.790;2022-09-09T01:28:19;9.43;;;4.85;;
30972;SDS011;25423;45.624;13.790;2022-09-09T01:30:50;9.27;;;5.10;;
30972;SDS011;25423;45.624;13.790;2022-09-09T01:33:17;11.35;;;5.22;;
30972;SDS011;25423;45.624;13.790;2022-09-09T01:38:15;11.07;;;5.35;;
30972;SDS011;25423;45.624;13.790;2022-09-09T01:40:43;7.95;;;4.32;;
30972;SDS011;25423;45.624;13.790;2022-09-09T01:43:09;11.85;;;5.40;;
30972;SDS011;25423;45.624;13.790;2022-09-09T01:45:35;15.48;;;4.85;;
30972;SDS011;25423;45.624;13.790;2022-09-09T01:48:02;12.30;;;5.07;;
30972;SDS011;25423;45.624;13.790;2022-09-09T01:50:28;11.77;;;5.40;;
30972;SDS011;25423;45.624;13.790;2022-09-09T01:52:55;6.50;;;4.50;;
30972;SDS011;25423;45.624;13.790;2022-09-09T01:55:28;12.43;;;4.38;;
30972;SDS011;25423;45.624;13.790;2022-09-09T02:01:09;7.50;;;4.50;;
30972;SDS011;25423;45.624;13.790;2022-09-09T02:03:55;8.18;;;5.35;;
30972;SDS011;25423;45.624;13.790;2022-09-09T02:08:57;9.65;;;5.32;;
30972;SDS011;25423;45.624;13.790;2022-09-09T02:11:26;6.72;;;4.82;;
30972;SDS011;25423;45.624;13.790;2022-09-09T02:13:59;6.88;;;3.92;;
30972;SDS011;25423;45.624;13.790;2022-09-09T02:19:17;12.07;;;4.80;;
30972;SDS011;25423;45.624;13.790;2022-09-09T02:21:50;11.10;;;3.70;;
30972;SDS011;25423;45.624;13.790;2022-09-09T02:24:19;6.43;;;3.38;;
30972;SDS011;25423;45.624;13.790;2022-09-09T02:26:47;5.18;;;3.35;;
30972;SDS011;25423;45.624;13.790;2022-09-09T02:29:27;12.50;;;4.07;;
30972;SDS011;25423;45.624;13.790;2022-09-09T02:32:07;6.60;;;3.08;;
30972;SDS011;25423;45.624;13.790;2022-09-09T02:34:36;8.25;;;3.20;;
30972;SDS011;25423;45.624;13.790;2022-09-09T02:37:08;9.82;;;3.33;;
30972;SDS011;25423;45.624;13.790;2022-09-09T02:39:36;8.30;;;2.80;;
30972;SDS011;25423;45.624;13.790;2022-09-09T02:42:03;5.80;;;3.47;;
30972;SDS011;25423;45.624;13.790;2022-09-09T02:44:29;9.85;;;2.55;;
30972;SDS011;25423;45.624;13.790;2022-09-09T02:49:44;8.25;;;2.60;;
30972;SDS011;25423;45.624;13.790;2022-09-09T02:52:36;2.53;;;2.10;;
30972;SDS011;25423;45.624;13.790;2022-09-09T02:55:09;5.20;;;2.58;;
30972;SDS011;25423;45.624;13.790;2022-09-09T02:57:43;6.70;;;2.38;;
30972;SDS011;25423;45.624;13.790;2022-09-09T03:00:13;8.13;;;2.58;;
30972;SDS011;25423;45.624;13.790;2022-09-09T03:02:39;2.97;;;2.47;;
30972;SDS011;25423;45.624;13.790;2022-09-09T03:05:05;3.35;;;2.30;;
30972;SDS011;25423;45.624;13.790;2022-09-09T03:07:31;5.05;;;1.85;;
30972;SDS011;25423;45.624;13.790;2022-09-09T03:09:58;2.20;;;1.77;;
30972;SDS011;25423;45.624;13.790;2022-09-09T03:12:24;4.72;;;1.83;;
30972;SDS011;25423;45.624;13.790;2022-09-09T03:14:50;4.70;;;2.25;;
30972;SDS011;25423;45.624;13.790;2022-09-09T03:17:15;4.03;;;1.55;;
30972;SDS011;25423;45.624;13.790;2022-09-09T03:19:41;4.38;;;3.03;;
30972;SDS011;25423;45.624;13.790;2022-09-09T03:22:09;1.98;;;1.40;;
30972;SDS011;25423;45.624;13.790;2022-09-09T03:24:36;3.42;;;1.92;;
30972;SDS011;25423;45.624;13.790;2022-09-09T03:27:02;5.13;;;2.22;;
30972;SDS011;25423;45.624;13.790;2022-09-09T03:29:28;4.50;;;2.22;;
30972;SDS011;25423;45.624;13.790;2022-09-09T03:31:53;3.33;;;2.47;;
30972;SDS011;25423;45.624;13.790;2022-09-09T03:34:19;1.85;;;1.38;;
30972;SDS011;25423;45.624;13.790;2022-09-09T03:36:45;4.85;;;2.13;;
30972;SDS011;25423;45.624;13.790;2022-09-09T03:39:13;4.93;;;1.38;;
30972;SDS011;25423;45.624;13.790;2022-09-09T03:41:39;3.45;;;1.95;;
30972;SDS011;25423;45.624;13.790;2022-09-09T03:44:05;3.03;;;2.05;;
30972;SDS011;25423;45.624;13.790;2022-09-09T03:46:30;4.70;;;1.73;;
30972;SDS011;25423;45.624;13.790;2022-09-09T03:48:57;5.53;;;2.72;;
30972;SDS011;25423;45.624;13.790;2022-09-09T03:51:23;3.83;;;1.70;;
30972;SDS011;25423;45.624;13.790;2022-09-09T03:53:49;3.80;;;2.22;;
30972;SDS011;25423;45.624;13.790;2022-09-09T03:56:15;5.68;;;2.47;;
30972;SDS011;25423;45.624;13.790;2022-09-09T03:58:41;2.83;;;2.13;;
30972;SDS011;25423;45.624;13.790;2022-09-09T04:01:13;6.07;;;2.25;;
30972;SDS011;25423;45.624;13.790;2022-09-09T04:03:42;3.70;;;2.45;;
30972;SDS011;25423;45.624;13.790;2022-09-09T04:06:14;4.50;;;2.20;;
30972;SDS011;25423;45.624;13.790;2022-09-09T04:08:40;4.07;;;2.42;;
30972;SDS011;25423;45.624;13.790;2022-09-09T04:11:06;4.13;;;2.08;;
30972;SDS011;25423;45.624;13.790;2022-09-09T04:13:33;5.57;;;2.67;;
30972;SDS011;25423;45.624;13.790;2022-09-09T04:16:00;12.25;;;3.08;;
30972;SDS011;25423;45.624;13.790;2022-09-09T04:18:28;7.70;;;3.03;;
30972;SDS011;25423;45.624;13.790;2022-09-09T04:20:55;8.20;;;2.92;;
30972;SDS011;25423;45.624;13.790;2022-09-09T04:23:23;9.60;;;3.72;;
30972;SDS011;25423;45.624;13.790;2022-09-09T04:25:51;6.68;;;2.80;;
30972;SDS011;25423;45.624;13.790;2022-09-09T04:28:18;14.55;;;3.45;;
30972;SDS011;25423;45.624;13.790;2022-09-09T04:30:46;6.90;;;3.08;;
30972;SDS011;25423;45.624;13.790;2022-09-09T04:33:12;6.20;;;2.97;;
30972;SDS011;25423;45.624;13.790;2022-09-09T04:35:38;7.78;;;3.30;;
30972;SDS011;25423;45.624;13.790;2022-09-09T04:38:08;11.30;;;3.80;;
30972;SDS011;25423;45.624;13.790;2022-09-09T04:40:34;14.02;;;4.15;;
30972;SDS011;25423;45.624;13.790;2022-09-09T04:43:01;11.43;;;3.60;;
30972;SDS011;25423;45.624;13.790;2022-09-09T04:45:30;10.15;;;4.50;;
30972;SDS011;25423;45.624;13.790;2022-09-09T04:47:56;6.38;;;3.75;;
30972;SDS011;25423;45.624;13.790;2022-09-09T04:50:22;24.17;;;4.18;;
30972;SDS011;25423;45.624;13.790;2022-09-09T04:52:48;18.70;;;5.28;;
30972;SDS011;25423;45.624;13.790;2022-09-09T04:55:14;15.80;;;4.22;;
30972;SDS011;25423;45.624;13.790;2022-09-09T04:57:40;8.80;;;3.70;;
30972;SDS011;25423;45.624;13.790;2022-09-09T05:00:06;13.30;;;4.22;;
30972;SDS011;25423;45.624;13.790;2022-09-09T05:02:33;10.82;;;3.70;;
30972;SDS011;25423;45.624;13.790;2022-09-09T05:05:03;9.25;;;4.63;;
30972;SDS011;25423;45.624;13.790;2022-09-09T05:07:30;20.65;;;4.15;;
30972;SDS011;25423;45.624;13.790;2022-09-09T05:09:56;12.77;;;3.53;;
30972;SDS011;25423;45.624;13.790;2022-09-09T05:12:22;10.40;;;4.22;;
30972;SDS011;25423;45.624;13.790;2022-09-09T05:14:50;6.85;;;4.28;;
30972;SDS011;25423;45.624;13.790;2022-09-09T05:17:19;7.00;;;4.30;;
30972;SDS011;25423;45.624;13.790;2022-09-09T05:19:44;9.02;;;4.05;;
30972;SDS011;25423;45.624;13.790;2022-09-09T05:22:10;4.55;;;3.75;;
30972;SDS011;25423;45.624;13.790;2022-09-09T05:24:37;8.70;;;4.15;;
30972;SDS011;25423;45.624;13.790;2022-09-09T05:27:03;8.80;;;4.22;;
30972;SDS011;25423;45.624;13.790;2022-09-09T05:29:30;8.00;;;3.97;;
30972;SDS011;25423;45.624;13.790;2022-09-09T05:31:58;11.05;;;4.43;;
30972;SDS011;25423;45.624;13.790;2022-09-09T05:34:24;9.80;;;4.97;;
30972;SDS011;25423;45.624;13.790;2022-09-09T05:36:50;9.90;;;4.82;;
30972;SDS011;25423;45.624;13.790;2022-09-09T05:39:17;6.00;;;4.15;;
30972;SDS011;25423;45.624;13.790;2022-09-09T05:41:43;5.95;;;4.70;;
30972;SDS011;25423;45.624;13.790;2022-09-09T05:44:09;10.05;;;4.13;;
30972;SDS011;25423;45.624;13.790;2022-09-09T05:46:35;11.52;;;4.50;;
30972;SDS011;25423;45.624;13.790;2022-09-09T05:49:01;6.50;;;3.97;;
30972;SDS011;25423;45.624;13.790;2022-09-09T05:51:28;7.82;;;4.25;;
30972;SDS011;25423;45.624;13.790;2022-09-09T05:53:57;6.53;;;4.00;;
30972;SDS011;25423;45.624;13.790;2022-09-09T05:56:26;6.50;;;3.67;;
30972;SDS011;25423;45.624;13.790;2022-09-09T05:58:54;5.88;;;3.90;;
30972;SDS011;25423;45.624;13.790;2022-09-09T06:01:27;8.68;;;4.80;;
30972;SDS011;25423;45.624;13.790;2022-09-09T06:04:27;6.32;;;3.55;;
30972;SDS011;25423;45.624;13.790;2022-09-09T06:07:29;7.20;;;3.75;;
30972;SDS011;25423;45.624;13.790;2022-09-09T06:10:39;6.23;;;3.97;;
30972;SDS011;25423;45.624;13.790;2022-09-09T06:13:27;14.15;;;4.20;;
30972;SDS011;25423;45.624;13.790;2022-09-09T06:16:31;8.00;;;4.15;;
30972;SDS011;25423;45.624;13.790;2022-09-09T06:19:35;11.23;;;3.50;;
30972;SDS011;25423;45.624;13.790;2022-09-09T06:22:01;10.82;;;3.13;;
30972;SDS011;25423;45.624;13.790;2022-09-09T06:24:31;5.03;;;3.20;;
30972;SDS011;25423;45.624;13.790;2022-09-09T06:27:15;12.60;;;3.67;;
30972;SDS011;25423;45.624;13.790;2022-09-09T06:29:50;7.72;;;4.57;;
30972;SDS011;25423;45.624;13.790;2022-09-09T06:32:23;10.32;;;4.03;;
30972;SDS011;25423;45.624;13.790;2022-09-09T06:34:49;11.23;;;4.53;;
30972;SDS011;25423;45.624;13.790;2022-09-09T06:37:15;6.57;;;3.88;;
30972;SDS011;25423;45.624;13.790;2022-09-09T06:39:41;9.82;;;4.82;;
30972;SDS011;25423;45.624;13.790;2022-09-09T06:42:12;9.90;;;4.20;;
30972;SDS011;25423;45.624;13.790;2022-09-09T06:44:50;8.73;;;3.50;;
30972;SDS011;25423;45.624;13.790;2022-09-09T06:47:17;11.15;;;3.35;;
30972;SDS011;25423;45.624;13.790;2022-09-09T06:49:43;13.65;;;2.97;;
30972;SDS011;25423;45.624;13.790;2022-09-09T06:52:08;7.28;;;3.20;;
30972;SDS011;25423;45.624;13.790;2022-09-09T06:54:34;14.00;;;4.78;;
30972;SDS011;25423;45.624;13.790;2022-09-09T06:57:05;6.55;;;3.70;;
30972;SDS011;25423;45.624;13.790;2022-09-09T06:59:34;8.10;;;3.63;;
30972;SDS011;25423;45.624;13.790;2022-09-09T07:02:00;7.93;;;3.88;;
30972;SDS011;25423;45.624;13.790;2022-09-09T07:04:26;11.68;;;4.07;;
30972;SDS011;25423;45.624;13.790;2022-09-09T07:06:51;9.95;;;4.40;;
30972;SDS011;25423;45.624;13.790;2022-09-09T07:09:17;10.38;;;4.05;;
30972;SDS011;25423;45.624;13.790;2022-09-09T07:11:45;10.70;;;3.75;;
30972;SDS011;25423;45.624;13.790;2022-09-09T07:14:12;5.82;;;3.20;;
30972;SDS011;25423;45.624;13.790;2022-09-09T07:16:39;8.98;;;4.28;;
30972;SDS011;25423;45.624;13.790;2022-09-09T07:19:06;12.25;;;4.72;;
30972;SDS011;25423;45.624;13.790;2022-09-09T07:21:32;9.32;;;3.45;;
30972;SDS011;25423;45.624;13.790;2022-09-09T07:23:58;5.25;;;3.53;;
30972;SDS011;25423;45.624;13.790;2022-09-09T07:26:29;7.95;;;3.25;;
30972;SDS011;25423;45.624;13.790;2022-09-09T07:28:56;10.90;;;3.67;;
30972;SDS011;25423;45.624;13.790;2022-09-09T07:31:26;11.10;;;4.05;;
30972;SDS011;25423;45.624;13.790;2022-09-09T07:34:00;11.57;;;3.65;;
30972;SDS011;25423;45.624;13.790;2022-09-09T07:36:38;11.50;;;3.35;;
30972;SDS011;25423;45.624;13.790;2022-09-09T07:39:05;9.98;;;2.92;;
30972;SDS011;25423;45.624;13.790;2022-09-09T07:41:34;5.57;;;2.72;;
30972;SDS011;25423;45.624;13.790;2022-09-09T07:44:08;4.55;;;3.15;;
30972;SDS011;25423;45.624;13.790;2022-09-09T07:46:42;8.25;;;3.28;;
30972;SDS011;25423;45.624;13.790;2022-09-09T07:49:10;7.20;;;3.28;;
30972;SDS011;25423;45.624;13.790;2022-09-09T07:51:39;10.77;;;3.25;;
30972;SDS011;25423;45.624;13.790;2022-09-09T07:54:11;11.67;;;3.80;;
30972;SDS011;25423;45.624;13.790;2022-09-09T07:56:38;7.60;;;3.05;;
30972;SDS011;25423;45.624;13.790;2022-09-09T07:59:05;11.70;;;4.00;;
30972;SDS011;25423;45.624;13.790;2022-09-09T08:01:32;5.32;;;2.90;;
30972;SDS011;25423;45.624;13.790;2022-09-09T08:04:03;8.48;;;3.13;;
30972;SDS011;25423;45.624;13.790;2022-09-09T08:06:33;7.05;;;3.58;;
30972;SDS011;25423;45.624;13.790;2022-09-09T08:09:02;11.68;;;3.25;;
30972;SDS011;25423;45.624;13.790;2022-09-09T08:11:29;8.30;;;5.03;;
30972;SDS011;25423;45.624;13.790;2022-09-09T08:13:55;11.85;;;4.93;;
30972;SDS011;25423;45.624;13.790;2022-09-09T08:16:26;10.70;;;4.07;;
30972;SDS011;25423;45.624;13.790;2022-09-09T08:18:55;7.95;;;4.72;;
30972;SDS011;25423;45.624;13.790;2022-09-09T08:21:22;9.50;;;4.35;;
30972;SDS011;25423;45.624;13.790;2022-09-09T08:23:51;5.68;;;3.33;;
30972;SDS011;25423;45.624;13.790;2022-09-09T08:26:19;10.27;;;4.13;;
30972;SDS011;25423;45.624;13.790;2022-09-09T08:28:53;10.18;;;4.57;;
30972;SDS011;25423;45.624;13.790;2022-09-09T08:31:23;11.23;;;4.30;;
30972;SDS011;25423;45.624;13.790;2022-09-09T08:33:57;11.00;;;4.32;;
30972;SDS011;25423;45.624;13.790;2022-09-09T08:36:30;8.80;;;4.18;;
30972;SDS011;25423;45.624;13.790;2022-09-09T08:38:58;13.32;;;5.22;;
30972;SDS011;25423;45.624;13.790;2022-09-09T08:50:24;7.30;;;4.93;;
30972;SDS011;25423;45.624;13.790;2022-09-09T08:55:51;12.27;;;4.63;;
30972;SDS011;25423;45.624;13.790;2022-09-09T09:06:22;11.20;;;4.55;;
30972;SDS011;25423;45.624;13.790;2022-09-09T09:11:21;17.48;;;4.53;;
30972;SDS011;25423;45.624;13.790;2022-09-09T09:19:01;8.93;;;4.60;;
30972;SDS011;25423;45.624;13.790;2022-09-09T09:21:36;5.63;;;3.60;;
30972;SDS011;25423;45.624;13.790;2022-09-09T09:24:18;10.38;;;4.30;;
30972;SDS011;25423;45.624;13.790;2022-09-09T09:26:57;23.10;;;6.22;;
30972;SDS011;25423;45.624;13.790;2022-09-09T09:29:26;12.63;;;4.57;;
30972;SDS011;25423;45.624;13.790;2022-09-09T09:31:52;10.43;;;5.25;;
30972;SDS011;25423;45.624;13.790;2022-09-09T09:34:20;49.72;;;8.88;;
30972;SDS011;25423;45.624;13.790;2022-09-09T09:36:55;36.88;;;8.50;;
30972;SDS011;25423;45.624;13.790;2022-09-09T09:39:29;41.95;;;6.93;;
30972;SDS011;25423;45.624;13.790;2022-09-09T09:41:56;54.80;;;9.52;;
30972;SDS011;25423;45.624;13.790;2022-09-09T09:44:30;56.30;;;10.55;;
30972;SDS011;25423;45.624;13.790;2022-09-09T09:47:07;40.30;;;5.95;;
30972;SDS011;25423;45.624;13.790;2022-09-09T09:49:56;45.55;;;5.28;;
30972;SDS011;25423;45.624;13.790;2022-09-09T09:52:28;11.32;;;3.55;;
30972;SDS011;25423;45.624;13.790;2022-09-09T09:54:56;27.27;;;5.20;;
30972;SDS011;25423;45.624;13.790;2022-09-09T09:57:26;11.82;;;6.38;;
30972;SDS011;25423;45.624;13.790;2022-09-09T10:02:44;8.27;;;4.78;;
30972;SDS011;25423;45.624;13.790;2022-09-09T10:05:23;6.50;;;3.80;;
30972;SDS011;25423;45.624;13.790;2022-09-09T10:10:39;2.60;;;2.40;;
30972;SDS011;25423;45.624;13.790;2022-09-09T10:16:25;5.93;;;3.30;;
30972;SDS011;25423;45.624;13.790;2022-09-09T10:19:18;5.40;;;2.70;;
30972;SDS011;25423;45.624;13.790;2022-09-09T10:27:24;5.82;;;2.95;;
30972;SDS011;25423;45.624;13.790;2022-09-09T10:30:18;7.32;;;3.35;;
30972;SDS011;25423;45.624;13.790;2022-09-09T10:59:46;3.40;;;3.10;;
30972;SDS011;25423;45.624;13.790;2022-09-09T11:08:16;6.78;;;2.78;;
30972;SDS011;25423;45.624;13.790;2022-09-09T11:10:50;3.72;;;2.53;;
30972;SDS011;25423;45.624;13.790;2022-09-09T11:18:43;5.28;;;2.83;;
30972;SDS011;25423;45.624;13.790;2022-09-09T11:21:14;5.00;;;2.80;;
30972;SDS011;25423;45.624;13.790;2022-09-09T11:23:55;5.45;;;2.72;;
30972;SDS011;25423;45.624;13.790;2022-09-09T11:40:40;3.38;;;2.47;;
30972;SDS011;25423;45.624;13.790;2022-09-09T11:43:14;4.90;;;1.70;;
30972;SDS011;25423;45.624;13.790;2022-09-09T11:45:57;5.57;;;3.13;;
30972;SDS011;25423;45.624;13.790;2022-09-09T11:48:26;5.88;;;2.70;;
30972;SDS011;25423;45.624;13.790;2022-09-09T11:53:32;3.25;;;1.85;;
30972;SDS011;25423;45.624;13.790;2022-09-09T11:56:03;4.65;;;2.65;;
30972;SDS011;25423;45.624;13.790;2022-09-09T12:01:41;5.70;;;2.47;;
30972;SDS011;25423;45.624;13.790;2022-09-09T12:17:22;5.20;;;3.33;;
30972;SDS011;25423;45.624;13.790;2022-09-09T12:25:17;7.45;;;2.17;;
30972;SDS011;25423;45.624;13.790;2022-09-09T12:28:04;4.30;;;1.95;;
30972;SDS011;25423;45.624;13.790;2022-09-09T12:30:34;10.02;;;2.67;;
30972;SDS011;25423;45.624;13.790;2022-09-09T12:33:22;3.22;;;1.52;;
30972;SDS011;25423;45.624;13.790;2022-09-09T12:35:54;6.47;;;3.13;;
30972;SDS011;25423;45.624;13.790;2022-09-09T12:38:29;4.63;;;3.00;;
30972;SDS011;25423;45.624;13.790;2022-09-09T12:40:59;4.03;;;1.92;;
30972;SDS011;25423;45.624;13.790;2022-09-09T12:43:26;5.50;;;1.17;;
30972;SDS011;25423;45.624;13.790;2022-09-09T12:46:17;4.07;;;2.17;;
30972;SDS011;25423;45.624;13.790;2022-09-09T12:49:01;6.32;;;2.53;;
30972;SDS011;25423;45.624;13.790;2022-09-09T12:51:29;3.13;;;1.70;;
30972;SDS011;25423;45.624;13.790;2022-09-09T12:53:56;4.18;;;1.80;;
30972;SDS011;25423;45.624;13.790;2022-09-09T12:56:24;2.85;;;1.65;;
30972;SDS011;25423;45.624;13.790;2022-09-09T12:58:52;4.57;;;2.13;;
30972;SDS011;25423;45.624;13.790;2022-09-09T13:01:21;3.28;;;1.85;;
30972;SDS011;25423;45.624;13.790;2022-09-09T13:03:52;7.78;;;2.20;;
30972;SDS011;25423;45.624;13.790;2022-09-09T13:06:19;7.90;;;2.10;;
30972;SDS011;25423;45.624;13.790;2022-09-09T13:11:18;3.33;;;1.63;;
30972;SDS011;25423;45.624;13.790;2022-09-09T13:13:51;4.40;;;2.15;;
30972;SDS011;25423;45.624;13.790;2022-09-09T13:21:16;3.42;;;1.98;;
30972;SDS011;25423;45.624;13.790;2022-09-09T13:23:47;6.63;;;1.83;;
30972;SDS011;25423;45.624;13.790;2022-09-09T13:26:24;4.18;;;2.00;;
30972;SDS011;25423;45.624;13.790;2022-09-09T13:28:54;5.07;;;2.42;;
30972;SDS011;25423;45.624;13.790;2022-09-09T13:31:33;8.43;;;2.33;;
30972;SDS011;25423;45.624;13.790;2022-09-09T13:34:11;10.60;;;2.78;;
30972;SDS011;25423;45.624;13.790;2022-09-09T13:36:38;8.25;;;2.72;;
30972;SDS011;25423;45.624;13.790;2022-09-09T13:39:13;4.35;;;2.40;;
30972;SDS011;25423;45.624;13.790;2022-09-09T13:41:43;7.82;;;2.50;;
30972;SDS011;25423;45.624;13.790;2022-09-09T13:44:33;5.28;;;2.40;;
30972;SDS011;25423;45.624;13.790;2022-09-09T13:47:02;4.25;;;2.20;;
30972;SDS011;25423;45.624;13.790;2022-09-09T13:49:34;9.93;;;3.88;;
30972;SDS011;25423;45.624;13.790;2022-09-09T13:52:04;5.40;;;3.00;;
30972;SDS011;25423;45.624;13.790;2022-09-09T13:54:32;4.40;;;2.45;;
30972;SDS011;25423;45.624;13.790;2022-09-09T13:56:58;7.63;;;3.03;;
30972;SDS011;25423;45.624;13.790;2022-09-09T13:59:24;3.03;;;2.35;;
30972;SDS011;25423;45.624;13.790;2022-09-09T14:01:50;6.88;;;2.80;;
30972;SDS011;25423;45.624;13.790;2022-09-09T14:04:17;5.72;;;3.88;;
30972;SDS011;25423;45.624;13.790;2022-09-09T14:06:46;5.53;;;2.97;;
30972;SDS011;25423;45.624;13.790;2022-09-09T14:09:13;7.70;;;3.35;;
30972;SDS011;25423;45.624;13.790;2022-09-09T14:11:41;12.68;;;2.40;;
30972;SDS011;25423;45.624;13.790;2022-09-09T14:14:07;7.28;;;2.95;;
30972;SDS011;25423;45.624;13.790;2022-09-09T14:16:33;10.70;;;2.70;;
30972;SDS011;25423;45.624;13.790;2022-09-09T14:18:59;6.15;;;3.17;;
30972;SDS011;25423;45.624;13.790;2022-09-09T14:21:26;4.97;;;2.35;;
30972;SDS011;25423;45.624;13.790;2022-09-09T14:23:52;8.30;;;2.80;;
30972;SDS011;25423;45.624;13.790;2022-09-09T14:26:19;4.05;;;2.63;;
30972;SDS011;25423;45.624;13.790;2022-09-09T14:28:46;8.20;;;2.53;;
30972;SDS011;25423;45.624;13.790;2022-09-09T14:31:13;7.07;;;3.00;;
30972;SDS011;25423;45.624;13.790;2022-09-09T14:33:39;6.97;;;2.65;;
30972;SDS011;25423;45.624;13.790;2022-09-09T14:36:05;7.00;;;3.42;;
30972;SDS011;25423;45.624;13.790;2022-09-09T14:38:35;10.52;;;3.35;;
30972;SDS011;25423;45.624;13.790;2022-09-09T14:41:07;11.60;;;4.47;;
30972;SDS011;25423;45.624;13.790;2022-09-09T14:43:37;14.45;;;4.43;;
30972;SDS011;25423;45.624;13.790;2022-09-09T14:46:04;14.15;;;3.60;;
30972;SDS011;25423;45.624;13.790;2022-09-09T14:48:34;9.93;;;2.93;;
30972;SDS011;25423;45.624;13.790;2022-09-09T14:53:32;18.88;;;4.63;;
30972;SDS011;25423;45.624;13.790;2022-09-09T14:56:20;14.52;;;4.50;;
30972;SDS011;25423;45.624;13.790;2022-09-09T14:58:47;12.05;;;3.13;;
30972;SDS011;25423;45.624;13.790;2022-09-09T15:01:18;6.70;;;3.40;;
30972;SDS011;25423;45.624;13.790;2022-09-09T15:03:51;12.98;;;3.90;;
30972;SDS011;25423;45.624;13.790;2022-09-09T15:06:19;11.02;;;3.38;;
30972;SDS011;25423;45.624;13.790;2022-09-09T15:08:46;11.25;;;3.80;;
30972;SDS011;25423;45.624;13.790;2022-09-09T15:11:13;6.97;;;2.67;;
30972;SDS011;25423;45.624;13.790;2022-09-09T15:13:40;10.85;;;3.45;;
30972;SDS011;25423;45.624;13.790;2022-09-09T15:16:08;10.07;;;3.22;;
30972;SDS011;25423;45.624;13.790;2022-09-09T15:18:36;12.60;;;4.20;;
30972;SDS011;25423;45.624;13.790;2022-09-09T15:21:05;12.85;;;3.47;;
30972;SDS011;25423;45.624;13.790;2022-09-09T15:23:32;10.13;;;2.33;;
30972;SDS011;25423;45.624;13.790;2022-09-09T15:25:58;10.13;;;3.10;;
30972;SDS011;25423;45.624;13.790;2022-09-09T15:28:24;13.43;;;2.97;;
30972;SDS011;25423;45.624;13.790;2022-09-09T15:30:50;6.93;;;2.53;;
30972;SDS011;25423;45.624;13.790;2022-09-09T15:33:18;13.45;;;3.35;;
30972;SDS011;25423;45.624;13.790;2022-09-09T15:35:44;12.23;;;3.88;;
30972;SDS011;25423;45.624;13.790;2022-09-09T15:38:10;7.57;;;3.50;;
30972;SDS011;25423;45.624;13.790;2022-09-09T15:40:38;8.95;;;2.92;;
30972;SDS011;25423;45.624;13.790;2022-09-09T15:43:07;25.25;;;5.20;;
30972;SDS011;25423;45.624;13.790;2022-09-09T15:45:35;41.47;;;10.23;;
30972;SDS011;25423;45.624;13.790;2022-09-09T15:48:02;30.65;;;7.80;;
30972;SDS011;25423;45.624;13.790;2022-09-09T15:50:29;18.92;;;5.18;;
30972;SDS011;25423;45.624;13.790;2022-09-09T15:52:58;15.93;;;4.45;;
30972;SDS011;25423;45.624;13.790;2022-09-09T15:55:24;11.75;;;3.17;;
30972;SDS011;25423;45.624;13.790;2022-09-09T15:57:50;9.68;;;3.83;;
30972;SDS011;25423;45.624;13.790;2022-09-09T16:00:18;14.65;;;4.20;;
30972;SDS011;25423;45.624;13.790;2022-09-09T16:02:46;7.68;;;3.75;;
30972;SDS011;25423;45.624;13.790;2022-09-09T16:05:12;3.88;;;2.58;;
30972;SDS011;25423;45.624;13.790;2022-09-09T16:07:38;6.70;;;4.80;;
30972;SDS011;25423;45.624;13.790;2022-09-09T16:10:04;14.75;;;4.22;;
30972;SDS011;25423;45.624;13.790;2022-09-09T16:12:31;6.68;;;2.80;;
30972;SDS011;25423;45.624;13.790;2022-09-09T16:14:56;6.43;;;2.30;;
30972;SDS011;25423;45.624;13.790;2022-09-09T16:17:22;10.05;;;3.35;;
30972;SDS011;25423;45.624;13.790;2022-09-09T16:19:48;6.18;;;3.63;;
30972;SDS011;25423;45.624;13.790;2022-09-09T16:22:13;6.50;;;3.38;;
30972;SDS011;25423;45.624;13.790;2022-09-09T16:24:40;8.38;;;3.65;;
30972;SDS011;25423;45.624;13.790;2022-09-09T16:27:06;8.70;;;3.13;;
30972;SDS011;25423;45.624;13.790;2022-09-09T16:29:32;6.65;;;3.97;;
30972;SDS011;25423;45.624;13.790;2022-09-09T16:31:58;6.88;;;2.85;;
30972;SDS011;25423;45.624;13.790;2022-09-09T16:34:25;9.27;;;4.38;;
30972;SDS011;25423;45.624;13.790;2022-09-09T16:36:51;8.90;;;3.97;;
30972;SDS011;25423;45.624;13.790;2022-09-09T16:39:18;12.15;;;2.33;;
30972;SDS011;25423;45.624;13.790;2022-09-09T16:41:46;4.97;;;2.70;;
30972;SDS011;25423;45.624;13.790;2022-09-09T16:44:14;6.10;;;2.55;;
30972;SDS011;25423;45.624;13.790;2022-09-09T16:46:42;11.93;;;3.72;;
30972;SDS011;25423;45.624;13.790;2022-09-09T16:49:09;4.65;;;2.67;;
30972;SDS011;25423;45.624;13.790;2022-09-09T16:51:37;5.18;;;3.10;;
30972;SDS011;25423;45.624;13.790;2022-09-09T16:54:04;5.30;;;2.85;;
30972;SDS011;25423;45.624;13.790;2022-09-09T16:56:32;4.70;;;2.60;;
30972;SDS011;25423;45.624;13.790;2022-09-09T16:59:09;4.15;;;3.10;;
30972;SDS011;25423;45.624;13.790;2022-09-09T17:01:42;19.38;;;7.85;;
30972;SDS011;25423;45.624;13.790;2022-09-09T17:04:12;24.63;;;6.40;;
30972;SDS011;25423;45.624;13.790;2022-09-09T17:06:48;13.75;;;4.00;;
30972;SDS011;25423;45.624;13.790;2022-09-09T17:09:16;30.10;;;6.70;;
30972;SDS011;25423;45.624;13.790;2022-09-09T17:11:43;30.38;;;6.43;;
30972;SDS011;25423;45.624;13.790;2022-09-09T17:14:11;21.02;;;5.43;;
30972;SDS011;25423;45.624;13.790;2022-09-09T17:16:40;25.23;;;7.80;;
30972;SDS011;25423;45.624;13.790;2022-09-09T17:19:06;13.32;;;4.82;;
30972;SDS011;25423;45.624;13.790;2022-09-09T17:21:34;10.82;;;3.53;;
30972;SDS011;25423;45.624;13.790;2022-09-09T17:24:01;16.95;;;4.05;;
30972;SDS011;25423;45.624;13.790;2022-09-09T17:26:27;13.88;;;8.38;;
30972;SDS011;25423;45.624;13.790;2022-09-09T17:28:55;9.48;;;3.58;;
30972;SDS011;25423;45.624;13.790;2022-09-09T17:31:23;11.07;;;5.72;;
30972;SDS011;25423;45.624;13.790;2022-09-09T17:33:50;9.50;;;5.55;;
30972;SDS011;25423;45.624;13.790;2022-09-09T17:36:22;17.20;;;6.82;;
30972;SDS011;25423;45.624;13.790;2022-09-09T17:38:50;10.00;;;4.45;;
30972;SDS011;25423;45.624;13.790;2022-09-09T17:41:20;5.53;;;3.95;;
30972;SDS011;25423;45.624;13.790;2022-09-09T17:43:51;6.10;;;4.03;;
30972;SDS011;25423;45.624;13.790;2022-09-09T17:46:18;5.65;;;3.40;;
30972;SDS011;25423;45.624;13.790;2022-09-09T17:48:49;5.53;;;3.30;;
30972;SDS011;25423;45.624;13.790;2022-09-09T17:51:19;13.35;;;7.38;;
30972;SDS011;25423;45.624;13.790;2022-09-09T17:53:50;7.00;;;3.83;;